Time;durP1;ratioP1;P1;durP2;ratioP2;P2;SDS_P1;SDS_P2;PMS_P1;PMS_P2;Temp;Humidity;BMP_temperature;BMP_pressure;BME280_temperature;BME280_humidity;BME280_pressure;Samples;Min_cycle;Max_cycle;Signal;HPM_P1;HPM_P2
2021/04/21 00:02:01;;;;;;;27.33;21.47;;;;;;;;;;5072280;28;20213;-63
2021/04/21 00:04:28;;;;;;;26.73;21.77;;;;;;;;;;5072812;28;20232;-63
2021/04/21 00:06:56;;;;;;;27.63;21.43;;;;;;;;;;5072910;28;20264;-63
2021/04/21 00:09:23;;;;;;;29.50;20.57;;;;;;;;;;5072692;28;20212;-63
2021/04/21 00:11:50;;;;;;;33.10;22.10;;;;;;;;;;5072561;28;20584;-63
2021/04/21 00:14:20;;;;;;;29.93;22.80;;;;;;;;;;5071892;28;20226;-64
2021/04/21 00:16:49;;;;;;;33.60;22.10;;;;;;;;;;5072825;28;20743;-64
2021/04/21 00:19:18;;;;;;;29.30;22.23;;;;;;;;;;5072706;28;20202;-63
2021/04/21 00:21:46;;;;;;;32.47;21.60;;;;;;;;;;5072168;28;20213;-63
2021/04/21 00:24:13;;;;;;;32.30;23.90;;;;;;;;;;5072459;28;20237;-64
2021/04/21 00:26:41;;;;;;;30.50;22.57;;;;;;;;;;5072098;28;20702;-63
2021/04/21 00:29:10;;;;;;;33.57;25.10;;;;;;;;;;5072408;28;20213;-63
2021/04/21 00:31:38;;;;;;;32.47;23.33;;;;;;;;;;5071896;28;20209;-63
2021/04/21 00:34:05;;;;;;;33.23;23.73;;;;;;;;;;5072251;28;20893;-63
2021/04/21 00:36:34;;;;;;;32.30;23.00;;;;;;;;;;5072277;28;20201;-63
2021/04/21 00:39:01;;;;;;;31.03;23.10;;;;;;;;;;5072089;28;20235;-63
2021/04/21 00:41:32;;;;;;;33.03;23.67;;;;;;;;;;5071614;28;20750;-63
2021/04/21 00:44:01;;;;;;;32.93;23.40;;;;;;;;;;5072047;28;20612;-63
2021/04/21 00:46:32;;;;;;;34.73;23.53;;;;;;;;;;5072126;28;20228;-63
2021/04/21 00:49:02;;;;;;;33.97;24.37;;;;;;;;;;5072179;28;20209;-63
2021/04/21 00:51:30;;;;;;;31.37;23.30;;;;;;;;;;5071702;28;20299;-63
2021/04/21 00:54:01;;;;;;;31.13;23.23;;;;;;;;;;5071918;28;20712;-63
2021/04/21 00:56:33;;;;;;;31.97;23.50;;;;;;;;;;5072037;28;20204;-63
2021/04/21 00:59:02;;;;;;;33.00;23.63;;;;;;;;;;5072205;28;20213;-63
2021/04/21 01:01:30;;;;;;;38.03;23.70;;;;;;;;;;5071727;28;20205;-63
2021/04/21 01:03:56;;;;;;;32.03;23.77;;;;;;;;;;5071921;28;20225;-63
2021/04/21 01:06:27;;;;;;;32.57;24.30;;;;;;;;;;5071665;28;20217;-63
2021/04/21 01:08:56;;;;;;;37.93;24.87;;;;;;;;;;5071965;28;20254;-63
2021/04/21 01:11:24;;;;;;;34.77;24.60;;;;;;;;;;5071699;28;20213;-63
2021/04/21 01:13:52;;;;;;;33.83;25.10;;;;;;;;;;5071499;28;20212;-63
2021/04/21 01:16:21;;;;;;;33.10;25.07;;;;;;;;;;5071944;28;20559;-63
2021/04/21 01:18:49;;;;;;;40.43;26.30;;;;;;;;;;5071434;28;20205;-63
2021/04/21 01:21:19;;;;;;;41.33;25.60;;;;;;;;;;5072123;28;20205;-63
2021/04/21 01:23:52;;;;;;;30.13;24.23;;;;;;;;;;5071622;28;20205;-63
2021/04/21 01:26:40;;;;;;;36.27;25.80;;;;;;;;;;5072504;28;20225;-63
2021/04/21 01:29:08;;;;;;;36.40;25.63;;;;;;;;;;5072557;28;20208;-63
2021/04/21 01:31:35;;;;;;;33.67;25.07;;;;;;;;;;5075643;28;20571;-62
2021/04/21 01:34:02;;;;;;;38.77;26.20;;;;;;;;;;5076270;28;20224;-63
2021/04/21 01:36:29;;;;;;;38.77;26.10;;;;;;;;;;5076595;28;20204;-63
2021/04/21 01:39:00;;;;;;;35.37;25.47;;;;;;;;;;5076582;28;20212;-63
2021/04/21 01:41:27;;;;;;;36.33;26.07;;;;;;;;;;5079388;28;20213;-63
2021/04/21 01:43:55;;;;;;;38.43;26.80;;;;;;;;;;5076260;28;20647;-63
2021/04/21 01:46:24;;;;;;;41.20;27.30;;;;;;;;;;5075888;28;20231;-63
2021/04/21 01:48:52;;;;;;;37.60;27.47;;;;;;;;;;5076569;28;20227;-63
2021/04/21 01:51:23;;;;;;;39.30;26.93;;;;;;;;;;5075584;28;20215;-63
2021/04/21 01:53:52;;;;;;;36.40;27.20;;;;;;;;;;5075293;28;20254;-63
2021/04/21 01:56:21;;;;;;;42.87;27.73;;;;;;;;;;5075539;28;20200;-62
2021/04/21 01:59:03;;;;;;;36.53;26.97;;;;;;;;;;5075240;28;20676;-62
2021/04/21 02:01:42;;;;;;;40.70;28.50;;;;;;;;;;5075580;28;20225;-63
2021/04/21 02:04:14;;;;;;;40.63;27.70;;;;;;;;;;5075711;28;20262;-62
2021/04/21 02:06:49;;;;;;;39.73;28.53;;;;;;;;;;5074769;28;20228;-63
2021/04/21 02:09:31;;;;;;;40.67;28.57;;;;;;;;;;5074980;28;20669;-63
2021/04/21 02:12:04;;;;;;;41.97;28.87;;;;;;;;;;5065912;28;20677;-64
2021/04/21 02:14:33;;;;;;;46.43;31.67;;;;;;;;;;5075003;28;20225;-63
2021/04/21 02:17:07;;;;;;;43.97;30.40;;;;;;;;;;5074701;28;20202;-63
2021/04/21 02:19:44;;;;;;;42.10;30.00;;;;;;;;;;5075100;28;20219;-63
2021/04/21 02:22:21;;;;;;;45.30;30.20;;;;;;;;;;5074772;28;20204;-63
2021/04/21 02:24:51;;;;;;;40.30;30.33;;;;;;;;;;5074778;28;20228;-63
2021/04/21 02:27:22;;;;;;;43.90;30.10;;;;;;;;;;5074491;28;20289;-63
2021/04/21 02:29:54;;;;;;;45.33;31.43;;;;;;;;;;5074262;28;20215;-62
2021/04/21 02:32:28;;;;;;;43.10;30.77;;;;;;;;;;5074574;28;20581;-64
2021/04/21 02:35:01;;;;;;;42.90;31.13;;;;;;;;;;5074404;28;20239;-63
2021/04/21 02:37:29;;;;;;;47.93;31.57;;;;;;;;;;5074346;28;20200;-64
2021/04/21 02:40:02;;;;;;;48.87;33.30;;;;;;;;;;5074547;28;20587;-63
2021/04/21 02:42:31;;;;;;;49.93;34.23;;;;;;;;;;5073813;28;20290;-64
2021/04/21 02:45:04;;;;;;;43.93;32.73;;;;;;;;;;5074523;28;20232;-64
2021/04/21 02:47:36;;;;;;;47.97;33.63;;;;;;;;;;5074223;28;20554;-64
2021/04/21 02:50:06;;;;;;;47.67;35.13;;;;;;;;;;5074411;28;20646;-64
2021/04/21 02:52:37;;;;;;;44.37;32.50;;;;;;;;;;5073801;28;20208;-63
2021/04/21 02:55:09;;;;;;;48.93;34.00;;;;;;;;;;5074470;28;20226;-63
2021/04/21 02:57:39;;;;;;;47.67;32.80;;;;;;;;;;5074185;28;20207;-64
2021/04/21 03:00:07;;;;;;;49.97;34.10;;;;;;;;;;5074260;28;20584;-63
2021/04/21 03:02:35;;;;;;;53.33;34.93;;;;;;;;;;5073898;28;20212;-64
2021/04/21 03:05:08;;;;;;;51.30;35.40;;;;;;;;;;5073890;28;20260;-63
2021/04/21 03:07:38;;;;;;;52.27;36.10;;;;;;;;;;5073998;28;20230;-63
2021/04/21 03:10:07;;;;;;;51.03;35.77;;;;;;;;;;5073790;28;20210;-64
2021/04/21 03:12:34;;;;;;;51.90;36.37;;;;;;;;;;5073498;28;20212;-64
2021/04/21 03:15:05;;;;;;;49.33;35.03;;;;;;;;;;5073830;28;20596;-64
2021/04/21 03:17:31;;;;;;;50.97;34.40;;;;;;;;;;5073435;28;20205;-63
2021/04/21 03:20:02;;;;;;;49.60;34.13;;;;;;;;;;5072720;28;20253;-64
2021/04/21 03:22:30;;;;;;;49.17;34.87;;;;;;;;;;5071649;28;20319;-64
2021/04/21 03:24:58;;;;;;;51.23;34.93;;;;;;;;;;5072848;28;20236;-64
2021/04/21 03:27:27;;;;;;;53.40;36.30;;;;;;;;;;5073385;28;20237;-64
2021/04/21 03:29:55;;;;;;;55.87;38.43;;;;;;;;;;5073447;28;20579;-64
2021/04/21 03:32:27;;;;;;;58.63;36.97;;;;;;;;;;5073149;28;20202;-64
2021/04/21 03:34:56;;;;;;;53.53;36.23;;;;;;;;;;5073262;28;20239;-64
2021/04/21 03:37:30;;;;;;;53.30;35.50;;;;;;;;;;5073481;28;20215;-64
2021/04/21 03:39:58;;;;;;;58.30;38.03;;;;;;;;;;5072849;28;20206;-64
2021/04/21 03:42:24;;;;;;;52.33;37.33;;;;;;;;;;5071153;28;20213;-64
2021/04/21 03:44:51;;;;;;;54.77;35.87;;;;;;;;;;5071547;28;20269;-63
2021/04/21 03:47:18;;;;;;;54.17;34.57;;;;;;;;;;5072109;28;20370;-64
2021/04/21 03:49:45;;;;;;;51.50;35.67;;;;;;;;;;5071165;28;20206;-64
2021/04/21 03:52:12;;;;;;;53.13;35.73;;;;;;;;;;5072778;28;20364;-64
2021/04/21 03:54:41;;;;;;;57.63;38.10;;;;;;;;;;5073342;28;20232;-64
2021/04/21 03:57:08;;;;;;;59.90;38.40;;;;;;;;;;5073246;28;20252;-64
2021/04/21 03:59:36;;;;;;;58.77;39.40;;;;;;;;;;5072055;28;20206;-64
2021/04/21 04:02:04;;;;;;;54.70;36.97;;;;;;;;;;5072388;28;20255;-64
2021/04/21 04:04:32;;;;;;;57.77;39.37;;;;;;;;;;5072532;28;20277;-64
2021/04/21 04:07:04;;;;;;;61.93;40.47;;;;;;;;;;5071336;28;20225;-64
2021/04/21 04:09:32;;;;;;;58.83;41.00;;;;;;;;;;5072416;28;20670;-64
2021/04/21 04:12:04;;;;;;;61.47;40.70;;;;;;;;;;5072536;28;20212;-64
2021/04/21 04:14:31;;;;;;;61.70;40.80;;;;;;;;;;5072628;28;20254;-64
2021/04/21 04:16:59;;;;;;;61.97;41.30;;;;;;;;;;5072873;28;20207;-64
2021/04/21 04:19:26;;;;;;;65.00;43.40;;;;;;;;;;5058303;28;20206;-64
2021/04/21 04:21:55;;;;;;;65.10;44.33;;;;;;;;;;5052304;28;20216;-64
2021/04/21 04:24:22;;;;;;;61.67;40.17;;;;;;;;;;5052205;28;20284;-64
2021/04/21 04:26:49;;;;;;;60.93;42.77;;;;;;;;;;5052042;28;20703;-64
2021/04/21 04:29:16;;;;;;;68.93;44.90;;;;;;;;;;5052480;28;20211;-64
2021/04/21 04:31:43;;;;;;;67.90;43.20;;;;;;;;;;5051929;28;20253;-69
2021/04/21 04:34:10;;;;;;;66.87;42.20;;;;;;;;;;5057880;28;20228;-63
2021/04/21 04:36:38;;;;;;;65.63;42.20;;;;;;;;;;5070959;28;20248;-64
2021/04/21 04:39:05;;;;;;;64.80;42.07;;;;;;;;;;5071508;28;20682;-64
2021/04/21 04:41:32;;;;;;;63.67;43.43;;;;;;;;;;5072005;28;20594;-64
2021/04/21 04:43:59;;;;;;;67.60;44.80;;;;;;;;;;5071923;28;20635;-64
2021/04/21 04:46:29;;;;;;;63.97;43.67;;;;;;;;;;5071803;28;20223;-63
2021/04/21 04:48:56;;;;;;;70.47;44.00;;;;;;;;;;5071731;28;20226;-65
2021/04/21 04:51:23;;;;;;;63.27;42.03;;;;;;;;;;5071547;28;20206;-65
2021/04/21 04:53:50;;;;;;;64.87;40.10;;;;;;;;;;5071620;28;20216;-65
2021/04/21 04:56:18;;;;;;;65.23;43.60;;;;;;;;;;5071888;28;20546;-65
2021/04/21 04:58:46;;;;;;;62.77;43.07;;;;;;;;;;5072086;28;20565;-65
2021/04/21 05:01:13;;;;;;;65.67;41.83;;;;;;;;;;5070469;28;20269;-65
2021/04/21 05:03:45;;;;;;;66.10;42.37;;;;;;;;;;5070022;28;20215;-65
2021/04/21 05:06:12;;;;;;;66.00;42.40;;;;;;;;;;5070294;28;20228;-65
2021/04/21 05:08:44;;;;;;;72.20;47.57;;;;;;;;;;5071900;28;20215;-65
2021/04/21 05:11:13;;;;;;;73.00;46.30;;;;;;;;;;5072369;28;20221;-65
2021/04/21 05:13:40;;;;;;;67.73;44.77;;;;;;;;;;5071802;28;20268;-65
2021/04/21 05:16:25;;;;;;;69.00;44.10;;;;;;;;;;5072643;28;20253;-65
2021/04/21 05:19:17;;;;;;;70.00;44.37;;;;;;;;;;5074394;28;20207;-64
2021/04/21 05:22:04;;;;;;;69.93;45.17;;;;;;;;;;5072628;28;20246;-64
2021/04/21 05:24:49;;;;;;;68.63;44.57;;;;;;;;;;5073385;28;20220;-64
2021/04/21 05:27:34;;;;;;;68.23;44.40;;;;;;;;;;5073203;28;20237;-65
2021/04/21 05:30:18;;;;;;;70.13;44.37;;;;;;;;;;5069784;28;20220;-69
2021/04/21 05:33:07;;;;;;;67.87;43.60;;;;;;;;;;5043223;28;20216;-67
2021/04/21 05:36:00;;;;;;;72.27;46.10;;;;;;;;;;5053713;28;20233;-65
2021/04/21 05:38:52;;;;;;;71.87;46.83;;;;;;;;;;5043075;28;20212;-67
2021/04/21 05:41:35;;;;;;;72.23;46.57;;;;;;;;;;5074698;28;20216;-66
2021/04/21 05:44:35;;;;;;;65.10;44.83;;;;;;;;;;5072857;28;20229;-66
2021/04/21 05:47:19;;;;;;;70.53;46.40;;;;;;;;;;5074171;28;20740;-68
2021/04/21 05:50:03;;;;;;;77.33;48.73;;;;;;;;;;5079409;28;20208;-68
2021/04/21 05:52:46;;;;;;;75.07;47.30;;;;;;;;;;5080484;28;20209;-69
2021/04/21 05:55:30;;;;;;;71.87;45.80;;;;;;;;;;5073326;28;20674;-69
2021/04/21 05:58:08;;;;;;;68.27;46.03;;;;;;;;;;5071017;28;20204;-68
2021/04/21 06:00:50;;;;;;;68.40;46.27;;;;;;;;;;5070844;28;20231;-69
2021/04/21 06:03:17;;;;;;;65.60;43.57;;;;;;;;;;5070089;28;20209;-66
2021/04/21 06:05:43;;;;;;;67.60;44.70;;;;;;;;;;5070909;28;20231;-63
2021/04/21 06:08:11;;;;;;;65.60;44.23;;;;;;;;;;5070984;28;20219;-64
2021/04/21 06:10:39;;;;;;;61.23;43.27;;;;;;;;;;5066310;28;20245;-63
2021/04/21 06:13:05;;;;;;;61.50;42.57;;;;;;;;;;5052113;28;20205;-62
2021/04/21 06:15:33;;;;;;;63.90;43.60;;;;;;;;;;5054551;28;20226;-61
2021/04/21 06:18:01;;;;;;;66.43;44.83;;;;;;;;;;5054586;28;20332;-62
2021/04/21 06:20:35;;;;;;;64.80;42.47;;;;;;;;;;5054908;28;20607;-67
2021/04/21 06:23:04;;;;;;;57.60;39.47;;;;;;;;;;5054399;28;20209;-68
2021/04/21 06:25:30;;;;;;;52.70;38.33;;;;;;;;;;5057808;28;20230;-67
2021/04/21 06:28:08;;;;;;;58.17;39.73;;;;;;;;;;5058421;28;20210;-67
2021/04/21 06:30:35;;;;;;;52.53;39.23;;;;;;;;;;5056350;28;20210;-68
2021/04/21 06:33:02;;;;;;;59.43;38.60;;;;;;;;;;5054766;28;20210;-66
2021/04/21 06:35:29;;;;;;;51.77;37.63;;;;;;;;;;5053774;28;20225;-67
2021/04/21 06:37:56;;;;;;;50.17;37.67;;;;;;;;;;5054753;28;20217;-68
2021/04/21 06:40:25;;;;;;;53.60;37.60;;;;;;;;;;5054341;28;20210;-64
2021/04/21 06:42:51;;;;;;;60.63;40.53;;;;;;;;;;5053379;28;20756;-64
2021/04/21 06:45:23;;;;;;;49.87;37.03;;;;;;;;;;5053925;28;20223;-64
2021/04/21 06:48:00;;;;;;;51.70;35.30;;;;;;;;;;5053929;28;20232;-68
2021/04/21 06:50:28;;;;;;;50.83;36.80;;;;;;;;;;5054142;28;20268;-63
2021/04/21 06:52:58;;;;;;;48.87;35.13;;;;;;;;;;5054029;28;20293;-67
2021/04/21 06:55:25;;;;;;;36.53;29.30;;;;;;;;;;5054957;28;20232;-69
2021/04/21 06:57:53;;;;;;;39.17;29.53;;;;;;;;;;5055000;28;20212;-69
2021/04/21 07:00:22;;;;;;;45.23;31.73;;;;;;;;;;5054111;28;20221;-68
2021/04/21 07:02:51;;;;;;;49.27;34.63;;;;;;;;;;5053336;28;20260;-68
2021/04/21 07:08:22;;;;;;;48.07;34.17;;;;;;;;;;4998979;28;20277;-74
2021/04/21 07:13:58;;;;;;;46.97;34.00;;;;;;;;;;4878261;29;20278;-72
2021/04/21 07:16:40;;;;;;;52.13;33.80;;;;;;;;;;4991403;28;20200;-66
2021/04/21 07:19:10;;;;;;;48.97;34.53;;;;;;;;;;4993659;28;20596;-67
2021/04/21 07:21:39;;;;;;;45.57;33.40;;;;;;;;;;4993848;28;20211;-67
2021/04/21 07:24:06;;;;;;;46.83;32.57;;;;;;;;;;5003973;28;20278;-67
2021/04/21 07:26:38;;;;;;;46.90;34.70;;;;;;;;;;5012876;28;20230;-70
2021/04/21 07:29:12;;;;;;;43.47;32.73;;;;;;;;;;5012004;28;20218;-70
2021/04/21 07:31:49;;;;;;;47.77;33.00;;;;;;;;;;4993745;28;20218;-71
2021/04/21 07:34:29;;;;;;;40.57;30.57;;;;;;;;;;5013270;28;20256;-71
2021/04/21 07:37:14;;;;;;;45.67;30.73;;;;;;;;;;5012940;28;20203;-72
2021/04/21 07:42:53;;;;;;;42.20;31.20;;;;;;;;;;5012174;28;20607;-72
2021/04/21 07:48:47;;;;;;;41.53;32.33;;;;;;;;;;4932008;29;20297;-68
2021/04/21 07:51:43;;;;;;;36.87;29.57;;;;;;;;;;4952930;28;20213;-68
2021/04/21 07:54:18;;;;;;;41.33;29.80;;;;;;;;;;4951538;29;20229;-68
2021/04/21 07:56:52;;;;;;;41.33;31.33;;;;;;;;;;4985779;28;20253;-68
2021/04/21 07:59:20;;;;;;;42.97;31.50;;;;;;;;;;4993332;28;20269;-68
2021/04/21 08:01:47;;;;;;;46.60;32.60;;;;;;;;;;4993184;28;20207;-64
2021/04/21 08:04:17;;;;;;;45.37;34.83;;;;;;;;;;4992574;28;20226;-63
2021/04/21 08:06:44;;;;;;;45.87;34.33;;;;;;;;;;4992835;28;20708;-65
2021/04/21 08:09:11;;;;;;;42.77;32.47;;;;;;;;;;4993147;28;20212;-68
2021/04/21 08:11:39;;;;;;;41.17;33.33;;;;;;;;;;4992948;28;20215;-68
2021/04/21 08:14:06;;;;;;;43.87;31.47;;;;;;;;;;5014473;23;20730;-67
2021/04/21 08:16:35;;;;;;;42.97;32.70;;;;;;;;;;5032745;28;20199;-68
2021/04/21 08:19:11;;;;;;;42.60;31.53;;;;;;;;;;5033198;28;20273;-63
2021/04/21 08:21:39;;;;;;;39.70;31.17;;;;;;;;;;5034184;28;20214;-64
2021/04/21 08:24:06;;;;;;;45.00;32.13;;;;;;;;;;5032345;28;20272;-63
2021/04/21 08:26:32;;;;;;;39.60;32.07;;;;;;;;;;5032210;28;20789;-65
2021/04/21 08:29:01;;;;;;;39.70;30.40;;;;;;;;;;5032343;28;20203;-63
2021/04/21 08:31:28;;;;;;;36.53;28.70;;;;;;;;;;5032136;28;20582;-63
2021/04/21 08:33:55;;;;;;;37.47;29.50;;;;;;;;;;5025716;28;20658;-63
2021/04/21 08:36:21;;;;;;;42.13;30.57;;;;;;;;;;5012447;28;20292;-66
2021/04/21 08:38:48;;;;;;;40.27;29.10;;;;;;;;;;5025954;28;20213;-68
2021/04/21 08:41:16;;;;;;;33.77;27.47;;;;;;;;;;5020105;28;20681;-66
2021/04/21 08:43:46;;;;;;;40.07;30.33;;;;;;;;;;5011995;28;20633;-66
2021/04/21 08:46:13;;;;;;;41.47;28.17;;;;;;;;;;5012125;28;20221;-67
2021/04/21 08:48:41;;;;;;;38.07;29.50;;;;;;;;;;5014198;28;20217;-68
2021/04/21 08:51:08;;;;;;;35.27;26.30;;;;;;;;;;5013026;28;20216;-67
2021/04/21 08:53:36;;;;;;;40.13;26.13;;;;;;;;;;5011931;28;20211;-67
2021/04/21 08:56:04;;;;;;;35.17;26.60;;;;;;;;;;5014661;28;20215;-68
2021/04/21 08:58:31;;;;;;;29.57;22.83;;;;;;;;;;5031620;28;20676;-65
2021/04/21 09:00:58;;;;;;;30.57;22.60;;;;;;;;;;5031507;28;20719;-65
2021/04/21 09:03:25;;;;;;;30.37;23.13;;;;;;;;;;5030680;28;20208;-62
2021/04/21 09:05:52;;;;;;;30.50;21.27;;;;;;;;;;5031406;28;20659;-61
2021/04/21 09:08:20;;;;;;;31.60;21.03;;;;;;;;;;5031373;28;20212;-62
2021/04/21 09:10:47;;;;;;;32.00;22.03;;;;;;;;;;5031423;28;20692;-62
2021/04/21 09:13:14;;;;;;;27.30;22.30;;;;;;;;;;5030853;28;20208;-62
2021/04/21 09:15:42;;;;;;;28.83;21.27;;;;;;;;;;5030934;28;20237;-63
2021/04/21 09:18:09;;;;;;;27.03;21.43;;;;;;;;;;5031063;28;20263;-62
2021/04/21 09:20:43;;;;;;;33.40;23.20;;;;;;;;;;5031305;28;20678;-62
2021/04/21 09:23:12;;;;;;;31.77;21.93;;;;;;;;;;5030988;28;20294;-63
2021/04/21 09:25:39;;;;;;;27.77;21.13;;;;;;;;;;5031168;28;20320;-62
2021/04/21 09:28:06;;;;;;;26.63;20.17;;;;;;;;;;5030440;28;20590;-68
2021/04/21 09:30:36;;;;;;;32.77;23.43;;;;;;;;;;5011370;28;20211;-65
2021/04/21 09:33:02;;;;;;;28.37;19.87;;;;;;;;;;5010358;28;20730;-65
2021/04/21 09:35:32;;;;;;;29.57;20.43;;;;;;;;;;5010041;28;20249;-67
2021/04/21 09:38:05;;;;;;;25.17;18.20;;;;;;;;;;5023625;28;20206;-66
2021/04/21 09:40:39;;;;;;;24.73;19.67;;;;;;;;;;5032595;28;20217;-67
2021/04/21 09:43:06;;;;;;;24.90;18.37;;;;;;;;;;5038809;28;20301;-68
2021/04/21 09:45:34;;;;;;;21.90;16.70;;;;;;;;;;5047118;28;20749;-67
2021/04/21 09:48:04;;;;;;;25.17;17.67;;;;;;;;;;5040705;28;20237;-67
2021/04/21 09:50:31;;;;;;;24.47;16.53;;;;;;;;;;5051435;28;20214;-68
2021/04/21 09:53:17;;;;;;;20.53;16.60;;;;;;;;;;5035861;28;20644;-67
2021/04/21 09:55:57;;;;;;;19.97;14.70;;;;;;;;;;5027931;28;20614;-68
2021/04/21 10:01:27;;;;;;;19.23;15.17;;;;;;;;;;4998177;28;20313;-63
2021/04/21 10:04:13;;;;;;;18.77;14.50;;;;;;;;;;5033944;28;20214;-63
2021/04/21 10:06:42;;;;;;;21.00;14.83;;;;;;;;;;5035241;28;20230;-66
2021/04/21 10:09:22;;;;;;;19.93;13.83;;;;;;;;;;5034803;28;20207;-67
2021/04/21 10:11:49;;;;;;;17.90;13.43;;;;;;;;;;5034803;28;20260;-68
2021/04/21 10:14:23;;;;;;;19.13;14.83;;;;;;;;;;5033844;28;20241;-66
2021/04/21 10:16:50;;;;;;;22.43;15.03;;;;;;;;;;5034452;28;20659;-69
2021/04/21 10:19:16;;;;;;;24.00;14.47;;;;;;;;;;5034823;28;20210;-63
2021/04/21 10:21:44;;;;;;;20.50;13.77;;;;;;;;;;5034491;28;20210;-69
2021/04/21 10:24:10;;;;;;;15.97;13.50;;;;;;;;;;5033769;28;20715;-68
2021/04/21 10:26:38;;;;;;;14.73;11.43;;;;;;;;;;5034654;28;20230;-69
2021/04/21 10:29:05;;;;;;;15.53;10.60;;;;;;;;;;5034012;28;20967;-70
2021/04/21 10:31:32;;;;;;;14.27;10.63;;;;;;;;;;5034620;28;20208;-68
2021/04/21 10:33:59;;;;;;;13.93;10.70;;;;;;;;;;5034245;28;20256;-64
2021/04/21 10:36:25;;;;;;;14.93;10.97;;;;;;;;;;5034537;28;20301;-63
2021/04/21 10:38:53;;;;;;;11.87;10.33;;;;;;;;;;5034525;28;20215;-63
2021/04/21 10:41:23;;;;;;;13.90;10.20;;;;;;;;;;5034079;28;20206;-63
2021/04/21 10:43:50;;;;;;;12.00;10.03;;;;;;;;;;5033676;28;20309;-63
2021/04/21 10:46:18;;;;;;;17.67;10.07;;;;;;;;;;5034030;28;20235;-64
2021/04/21 10:48:45;;;;;;;14.60;10.53;;;;;;;;;;5034323;28;20221;-63
2021/04/21 10:51:30;;;;;;;13.97;9.37;;;;;;;;;;5034120;28;20206;-62
2021/04/21 10:54:00;;;;;;;13.40;9.63;;;;;;;;;;5033220;28;20234;-62
2021/04/21 10:56:27;;;;;;;12.97;9.63;;;;;;;;;;5034139;28;20210;-66
2021/04/21 10:58:54;;;;;;;11.57;10.20;;;;;;;;;;5032116;28;20684;-62
2021/04/21 11:01:34;;;;;;;13.90;9.20;;;;;;;;;;5033850;28;20217;-61
2021/04/21 11:04:02;;;;;;;13.37;9.77;;;;;;;;;;5032830;28;20229;-68
2021/04/21 11:06:48;;;;;;;13.83;9.43;;;;;;;;;;5032748;28;20226;-69
2021/04/21 11:09:16;;;;;;;15.23;10.27;;;;;;;;;;5033614;28;20675;-64
2021/04/21 11:11:45;;;;;;;13.20;10.27;;;;;;;;;;5033513;28;20202;-63
2021/04/21 11:14:14;;;;;;;13.83;9.27;;;;;;;;;;5032955;28;20234;-64
2021/04/21 11:16:42;;;;;;;16.37;9.60;;;;;;;;;;5033237;28;20609;-63
2021/04/21 11:19:28;;;;;;;14.00;10.43;;;;;;;;;;5033682;28;20222;-65
2021/04/21 11:22:13;;;;;;;16.70;10.90;;;;;;;;;;5033902;28;20348;-65
2021/04/21 11:24:40;;;;;;;19.43;10.40;;;;;;;;;;5032843;28;20234;-67
2021/04/21 11:27:13;;;;;;;16.00;11.13;;;;;;;;;;5033360;28;20226;-69
2021/04/21 11:29:39;;;;;;;13.53;10.37;;;;;;;;;;5033352;28;20647;-66
2021/04/21 11:32:14;;;;;;;12.17;9.77;;;;;;;;;;5033957;28;20284;-65
2021/04/21 11:34:41;;;;;;;15.43;10.33;;;;;;;;;;5032769;28;20271;-64
2021/04/21 11:37:08;;;;;;;18.17;10.10;;;;;;;;;;5033602;28;20205;-64
2021/04/21 11:42:40;;;;;;;15.63;9.80;;;;;;;;;;5032396;28;20204;-66
2021/04/21 11:45:08;;;;;;;12.20;10.30;;;;;;;;;;5032561;28;20234;-67
2021/04/21 11:47:44;;;;;;;12.83;10.70;;;;;;;;;;5026017;28;20228;-66
2021/04/21 11:50:12;;;;;;;12.03;9.63;;;;;;;;;;5012889;28;20217;-67
2021/04/21 11:52:46;;;;;;;16.03;9.40;;;;;;;;;;5012473;28;20203;-67
2021/04/21 11:55:18;;;;;;;17.13;10.20;;;;;;;;;;5012853;28;20281;-67
2021/04/21 11:57:50;;;;;;;12.50;9.60;;;;;;;;;;5013275;28;20199;-65
2021/04/21 12:00:17;;;;;;;13.83;10.33;;;;;;;;;;5012501;28;20780;-65
2021/04/21 12:02:45;;;;;;;14.67;10.57;;;;;;;;;;5012009;28;20298;-65
2021/04/21 12:05:12;;;;;;;12.93;10.67;;;;;;;;;;5012668;28;20230;-66
2021/04/21 12:07:39;;;;;;;15.33;10.27;;;;;;;;;;5013037;28;20288;-65
2021/04/21 12:10:06;;;;;;;12.20;10.10;;;;;;;;;;5012588;28;20673;-68
2021/04/21 12:12:32;;;;;;;14.27;10.23;;;;;;;;;;5012286;28;20208;-71
2021/04/21 12:15:02;;;;;;;15.00;11.30;;;;;;;;;;5012016;28;20235;-70
2021/04/21 12:17:30;;;;;;;14.97;11.97;;;;;;;;;;5012205;28;20227;-69
2021/04/21 12:19:59;;;;;;;15.53;11.50;;;;;;;;;;5012655;28;20206;-65
2021/04/21 12:22:38;;;;;;;17.43;12.13;;;;;;;;;;5012674;28;20253;-66
2021/04/21 12:25:06;;;;;;;17.13;12.40;;;;;;;;;;5011854;28;20895;-66
2021/04/21 12:27:33;;;;;;;16.93;13.10;;;;;;;;;;5012418;28;20238;-64
2021/04/21 12:30:08;;;;;;;16.87;12.67;;;;;;;;;;5012560;28;20607;-64
2021/04/21 12:32:35;;;;;;;19.67;12.47;;;;;;;;;;5011470;28;20206;-62
2021/04/21 12:35:03;;;;;;;17.97;12.87;;;;;;;;;;5010899;28;20258;-63
2021/04/21 12:37:30;;;;;;;14.50;11.50;;;;;;;;;;5012114;28;20533;-65
2021/04/21 12:39:56;;;;;;;14.83;12.60;;;;;;;;;;5012488;28;20207;-66
2021/04/21 12:42:23;;;;;;;15.57;12.40;;;;;;;;;;5011746;28;20210;-65
2021/04/21 12:44:49;;;;;;;16.50;13.00;;;;;;;;;;5011930;28;20231;-64
2021/04/21 12:47:16;;;;;;;21.50;14.03;;;;;;;;;;5012172;28;20226;-64
2021/04/21 12:49:43;;;;;;;19.17;15.23;;;;;;;;;;5012065;28;20290;-64
2021/04/21 12:52:11;;;;;;;17.43;14.07;;;;;;;;;;5012234;28;20253;-65
2021/04/21 12:54:39;;;;;;;19.93;14.20;;;;;;;;;;5011402;28;20223;-65
2021/04/21 12:57:08;;;;;;;19.43;14.70;;;;;;;;;;5012127;28;20211;-72
2021/04/21 12:59:52;;;;;;;21.47;14.87;;;;;;;;;;5011457;28;20223;-73
2021/04/21 13:02:43;;;;;;;19.23;15.77;;;;;;;;;;5011610;28;20207;-71
2021/04/21 13:05:10;;;;;;;21.67;15.93;;;;;;;;;;5011658;28;20231;-65
2021/04/21 13:07:37;;;;;;;19.43;16.23;;;;;;;;;;5012157;28;20235;-63
2021/04/21 13:10:08;;;;;;;18.83;15.70;;;;;;;;;;5012041;28;20668;-65
2021/04/21 13:12:35;;;;;;;20.73;16.07;;;;;;;;;;5011295;28;20249;-65
2021/04/21 13:15:11;;;;;;;20.73;15.73;;;;;;;;;;5011500;28;20309;-70
2021/04/21 13:17:49;;;;;;;18.30;14.77;;;;;;;;;;5011504;28;20293;-70
2021/04/21 13:20:16;;;;;;;22.27;16.20;;;;;;;;;;5011926;28;20210;-68
2021/04/21 13:22:44;;;;;;;19.23;15.00;;;;;;;;;;5011099;28;20624;-66
2021/04/21 13:25:11;;;;;;;22.23;14.63;;;;;;;;;;5011864;28;20227;-66
2021/04/21 13:27:39;;;;;;;20.40;15.40;;;;;;;;;;5011947;28;20230;-67
2021/04/21 13:30:11;;;;;;;17.57;14.33;;;;;;;;;;5011713;28;20219;-65
2021/04/21 13:32:41;;;;;;;21.30;16.87;;;;;;;;;;5011830;28;20210;-70
2021/04/21 13:35:13;;;;;;;20.53;15.73;;;;;;;;;;5012420;28;20258;-69
2021/04/21 13:38:12;;;;;;;;;;;;;;;;;;;;;
2021/04/21 13:40:39;;;;;;;19.87;15.97;;;;;;;;;;5011291;28;20207;-68
2021/04/21 13:43:06;;;;;;;19.07;15.43;;;;;;;;;;5011850;28;20296;-68
2021/04/21 13:45:32;;;;;;;20.20;15.03;;;;;;;;;;5012374;28;20234;-67
2021/04/21 13:48:02;;;;;;;17.27;14.07;;;;;;;;;;5012590;28;20253;-66
2021/04/21 13:50:28;;;;;;;18.93;14.60;;;;;;;;;;5014118;28;20211;-70
2021/04/21 13:53:00;;;;;;;21.50;15.07;;;;;;;;;;5017068;28;20207;-66
2021/04/21 13:55:26;;;;;;;18.03;15.07;;;;;;;;;;5018788;28;20234;-67
2021/04/21 13:57:53;;;;;;;21.53;16.30;;;;;;;;;;5014342;28;20203;-64
2021/04/21 14:00:20;;;;;;;22.90;16.43;;;;;;;;;;5015296;28;20557;-63
2021/04/21 14:02:47;;;;;;;21.07;16.53;;;;;;;;;;5018755;28;20207;-64
2021/04/21 14:05:14;;;;;;;22.93;16.20;;;;;;;;;;5019742;28;20226;-64
2021/04/21 14:07:41;;;;;;;24.10;18.20;;;;;;;;;;5020575;28;20223;-63
2021/04/21 14:10:08;;;;;;;20.30;16.53;;;;;;;;;;5014511;28;20268;-63
2021/04/21 14:12:35;;;;;;;20.87;16.37;;;;;;;;;;5011132;28;20646;-63
2021/04/21 14:15:02;;;;;;;19.80;15.53;;;;;;;;;;5011361;28;20743;-67
2021/04/21 14:17:28;;;;;;;19.73;14.73;;;;;;;;;;5011882;28;20203;-67
2021/04/21 14:20:09;;;;;;;20.83;15.80;;;;;;;;;;5011384;28;20207;-68
2021/04/21 14:22:36;;;;;;;21.07;14.97;;;;;;;;;;5011439;28;20218;-68
2021/04/21 14:25:08;;;;;;;22.33;15.33;;;;;;;;;;5011203;28;20231;-67
2021/04/21 14:27:45;;;;;;;17.87;14.30;;;;;;;;;;5010925;28;20233;-67
2021/04/21 14:30:12;;;;;;;18.10;15.10;;;;;;;;;;5011214;28;20225;-65
2021/04/21 14:32:39;;;;;;;19.67;14.23;;;;;;;;;;5010751;28;20254;-68
2021/04/21 14:35:06;;;;;;;18.63;16.33;;;;;;;;;;5014565;28;20235;-66
2021/04/21 14:37:32;;;;;;;21.30;16.27;;;;;;;;;;5014516;28;20203;-65
2021/04/21 14:40:00;;;;;;;20.37;16.20;;;;;;;;;;5014754;28;20215;-65
2021/04/21 14:42:27;;;;;;;20.47;16.10;;;;;;;;;;5015502;28;20207;-65
2021/04/21 14:44:54;;;;;;;20.17;15.03;;;;;;;;;;5018846;28;20223;-65
2021/04/21 14:47:21;;;;;;;22.03;16.10;;;;;;;;;;5016024;28;20237;-64
2021/04/21 14:49:47;;;;;;;21.80;15.50;;;;;;;;;;5015573;28;20354;-64
2021/04/21 14:52:14;;;;;;;18.67;14.40;;;;;;;;;;5016046;28;20207;-64
2021/04/21 14:54:41;;;;;;;18.80;14.57;;;;;;;;;;5014622;28;20766;-64
2021/04/21 14:57:08;;;;;;;19.20;14.27;;;;;;;;;;5014302;28;20199;-64